sensor_id;sensor_type;location;lat;lon;timestamp;P1;durP1;ratioP1;P2;durP2;ratioP2
351;SDS011;164;50.784;6.496;2024-01-16T00:09:06;3.85;;;3.30;;
351;SDS011;164;50.784;6.496;2024-01-16T00:11:33;5.25;;;3.47;;
351;SDS011;164;50.784;6.496;2024-01-16T00:14:01;8.30;;;3.58;;
351;SDS011;164;50.784;6.496;2024-01-16T00:16:28;4.47;;;4.05;;
351;SDS011;164;50.784;6.496;2024-01-16T00:18:55;2.67;;;2.47;;
351;SDS011;164;50.784;6.496;2024-01-16T00:21:23;4.25;;;3.90;;
351;SDS011;164;50.784;6.496;2024-01-16T00:23:50;4.68;;;3.13;;
351;SDS011;164;50.784;6.496;2024-01-16T00:26:22;3.13;;;2.92;;
351;SDS011;164;50.784;6.496;2024-01-16T00:28:49;3.47;;;2.00;;
351;SDS011;164;50.784;6.496;2024-01-16T00:31:17;2.90;;;2.70;;
351;SDS011;164;50.784;6.496;2024-01-16T00:33:46;4.10;;;3.05;;
351;SDS011;164;50.784;6.496;2024-01-16T00:36:13;3.10;;;2.92;;
351;SDS011;164;50.784;6.496;2024-01-16T00:38:40;4.60;;;3.10;;
351;SDS011;164;50.784;6.496;2024-01-16T00:41:07;4.18;;;3.40;;
351;SDS011;164;50.784;6.496;2024-01-16T00:43:36;4.03;;;3.55;;
351;SDS011;164;50.784;6.496;2024-01-16T00:46:04;4.50;;;4.22;;
351;SDS011;164;50.784;6.496;2024-01-16T00:48:32;4.20;;;3.10;;
351;SDS011;164;50.784;6.496;2024-01-16T00:51:00;4.50;;;3.65;;
351;SDS011;164;50.784;6.496;2024-01-16T00:53:27;3.25;;;3.05;;
351;SDS011;164;50.784;6.496;2024-01-16T00:55:54;4.93;;;3.75;;
351;SDS011;164;50.784;6.496;2024-01-16T00:58:22;3.75;;;3.22;;
351;SDS011;164;50.784;6.496;2024-01-16T01:00:51;3.90;;;3.30;;
351;SDS011;164;50.784;6.496;2024-01-16T01:03:18;4.70;;;3.50;;
351;SDS011;164;50.784;6.496;2024-01-16T01:05:46;4.88;;;3.83;;
351;SDS011;164;50.784;6.496;2024-01-16T01:08:13;5.18;;;3.42;;
351;SDS011;164;50.784;6.496;2024-01-16T01:10:40;5.43;;;3.53;;
351;SDS011;164;50.784;6.496;2024-01-16T01:13:08;3.42;;;2.88;;
351;SDS011;164;50.784;6.496;2024-01-16T01:15:35;4.13;;;3.75;;
351;SDS011;164;50.784;6.496;2024-01-16T01:18:04;5.63;;;4.60;;
351;SDS011;164;50.784;6.496;2024-01-16T01:20:32;5.25;;;4.20;;
351;SDS011;164;50.784;6.496;2024-01-16T01:23:00;6.43;;;3.60;;
351;SDS011;164;50.784;6.496;2024-01-16T01:25:27;3.13;;;2.92;;
351;SDS011;164;50.784;6.496;2024-01-16T01:27:54;4.40;;;3.65;;
351;SDS011;164;50.784;6.496;2024-01-16T01:30:22;3.75;;;3.22;;
351;SDS011;164;50.784;6.496;2024-01-16T01:32:49;4.85;;;2.95;;
351;SDS011;164;50.784;6.496;2024-01-16T01:35:18;3.40;;;2.97;;
351;SDS011;164;50.784;6.496;2024-01-16T01:37:46;8.25;;;3.63;;
351;SDS011;164;50.784;6.496;2024-01-16T01:40:13;4.97;;;2.95;;
351;SDS011;164;50.784;6.496;2024-01-16T01:42:40;4.97;;;3.35;;
351;SDS011;164;50.784;6.496;2024-01-16T01:45:08;3.72;;;2.85;;
351;SDS011;164;50.784;6.496;2024-01-16T01:47:36;5.00;;;3.28;;
351;SDS011;164;50.784;6.496;2024-01-16T01:50:03;4.35;;;3.00;;
351;SDS011;164;50.784;6.496;2024-01-16T01:52:32;3.65;;;3.42;;
351;SDS011;164;50.784;6.496;2024-01-16T01:55:00;3.22;;;3.03;;
351;SDS011;164;50.784;6.496;2024-01-16T01:57:28;4.25;;;2.67;;
351;SDS011;164;50.784;6.496;2024-01-16T01:59:56;3.30;;;2.70;;
351;SDS011;164;50.784;6.496;2024-01-16T02:02:22;4.25;;;3.10;;
351;SDS011;164;50.784;6.496;2024-01-16T02:04:50;6.68;;;4.32;;
351;SDS011;164;50.784;6.496;2024-01-16T02:07:17;6.40;;;3.38;;
351;SDS011;164;50.784;6.496;2024-01-16T02:09:46;7.18;;;3.58;;
351;SDS011;164;50.784;6.496;2024-01-16T02:12:14;5.05;;;3.42;;
351;SDS011;164;50.784;6.496;2024-01-16T02:14:41;3.35;;;2.75;;
351;SDS011;164;50.784;6.496;2024-01-16T02:17:08;9.57;;;3.92;;
351;SDS011;164;50.784;6.496;2024-01-16T02:19:36;4.07;;;2.95;;
351;SDS011;164;50.784;6.496;2024-01-16T02:22:04;11.63;;;3.45;;
351;SDS011;164;50.784;6.496;2024-01-16T02:24:34;4.03;;;3.10;;
351;SDS011;164;50.784;6.496;2024-01-16T02:27:01;3.60;;;2.90;;
351;SDS011;164;50.784;6.496;2024-01-16T02:29:28;6.55;;;3.42;;
351;SDS011;164;50.784;6.496;2024-01-16T02:31:56;6.68;;;4.43;;
351;SDS011;164;50.784;6.496;2024-01-16T02:34:23;4.65;;;2.95;;
351;SDS011;164;50.784;6.496;2024-01-16T02:36:50;4.65;;;3.15;;
351;SDS011;164;50.784;6.496;2024-01-16T02:39:18;5.53;;;3.22;;
351;SDS011;164;50.784;6.496;2024-01-16T02:41:47;4.53;;;3.13;;
351;SDS011;164;50.784;6.496;2024-01-16T02:44:16;5.38;;;4.07;;
351;SDS011;164;50.784;6.496;2024-01-16T02:46:43;4.03;;;3.50;;
351;SDS011;164;50.784;6.496;2024-01-16T02:49:11;4.35;;;4.03;;
351;SDS011;164;50.784;6.496;2024-01-16T02:51:38;6.32;;;4.20;;
351;SDS011;164;50.784;6.496;2024-01-16T02:54:06;9.05;;;4.10;;
351;SDS011;164;50.784;6.496;2024-01-16T02:56:33;3.70;;;3.50;;
351;SDS011;164;50.784;6.496;2024-01-16T02:59:02;5.97;;;4.00;;
351;SDS011;164;50.784;6.496;2024-01-16T03:01:32;4.03;;;3.75;;
351;SDS011;164;50.784;6.496;2024-01-16T03:04:00;4.65;;;3.63;;
351;SDS011;164;50.784;6.496;2024-01-16T03:06:27;3.88;;;3.30;;
351;SDS011;164;50.784;6.496;2024-01-16T03:08:54;5.00;;;3.65;;
351;SDS011;164;50.784;6.496;2024-01-16T03:11:21;6.47;;;4.85;;
351;SDS011;164;50.784;6.496;2024-01-16T03:13:49;5.72;;;4.40;;
351;SDS011;164;50.784;6.496;2024-01-16T03:16:19;5.65;;;4.05;;
351;SDS011;164;50.784;6.496;2024-01-16T03:18:46;6.32;;;4.53;;
351;SDS011;164;50.784;6.496;2024-01-16T03:21:13;3.50;;;3.30;;
351;SDS011;164;50.784;6.496;2024-01-16T03:23:41;7.82;;;4.70;;
351;SDS011;164;50.784;6.496;2024-01-16T03:26:11;8.32;;;5.47;;
351;SDS011;164;50.784;6.496;2024-01-16T03:28:39;5.10;;;3.58;;
351;SDS011;164;50.784;6.496;2024-01-16T03:31:06;5.90;;;4.20;;
351;SDS011;164;50.784;6.496;2024-01-16T03:33:35;4.70;;;4.40;;
351;SDS011;164;50.784;6.496;2024-01-16T03:36:07;3.92;;;3.72;;
351;SDS011;164;50.784;6.496;2024-01-16T03:38:34;6.90;;;4.03;;
351;SDS011;164;50.784;6.496;2024-01-16T03:41:02;5.97;;;4.57;;
351;SDS011;164;50.784;6.496;2024-01-16T03:43:31;6.47;;;3.80;;
351;SDS011;164;50.784;6.496;2024-01-16T03:45:59;4.00;;;3.80;;
351;SDS011;164;50.784;6.496;2024-01-16T03:48:26;8.05;;;5.15;;
351;SDS011;164;50.784;6.496;2024-01-16T03:50:55;4.35;;;3.95;;
351;SDS011;164;50.784;6.496;2024-01-16T03:53:22;4.50;;;4.20;;
351;SDS011;164;50.784;6.496;2024-01-16T03:55:50;6.95;;;3.80;;
351;SDS011;164;50.784;6.496;2024-01-16T03:58:17;5.95;;;4.95;;
351;SDS011;164;50.784;6.496;2024-01-16T04:00:45;9.18;;;3.75;;
351;SDS011;164;50.784;6.496;2024-01-16T04:03:12;4.20;;;3.95;;
351;SDS011;164;50.784;6.496;2024-01-16T04:05:40;7.40;;;4.65;;
351;SDS011;164;50.784;6.496;2024-01-16T04:08:09;4.35;;;3.95;;
351;SDS011;164;50.784;6.496;2024-01-16T04:10:37;6.10;;;3.70;;
351;SDS011;164;50.784;6.496;2024-01-16T04:13:04;6.93;;;3.97;;
351;SDS011;164;50.784;6.496;2024-01-16T04:15:32;6.40;;;3.80;;
351;SDS011;164;50.784;6.496;2024-01-16T04:18:00;5.95;;;4.00;;
351;SDS011;164;50.784;6.496;2024-01-16T04:20:28;3.67;;;3.53;;
351;SDS011;164;50.784;6.496;2024-01-16T04:22:55;5.90;;;3.50;;
351;SDS011;164;50.784;6.496;2024-01-16T04:25:24;7.93;;;4.53;;
351;SDS011;164;50.784;6.496;2024-01-16T04:27:51;4.88;;;3.80;;
351;SDS011;164;50.784;6.496;2024-01-16T04:30:19;4.53;;;3.40;;
351;SDS011;164;50.784;6.496;2024-01-16T04:32:46;4.57;;;4.28;;
351;SDS011;164;50.784;6.496;2024-01-16T04:35:14;4.32;;;3.67;;
351;SDS011;164;50.784;6.496;2024-01-16T04:37:41;5.65;;;3.65;;
351;SDS011;164;50.784;6.496;2024-01-16T04:40:09;4.88;;;4.35;;
351;SDS011;164;50.784;6.496;2024-01-16T04:42:38;5.75;;;3.75;;
351;SDS011;164;50.784;6.496;2024-01-16T04:45:05;5.40;;;4.40;;
351;SDS011;164;50.784;6.496;2024-01-16T04:47:33;5.70;;;4.30;;
351;SDS011;164;50.784;6.496;2024-01-16T04:50:00;5.57;;;4.05;;
351;SDS011;164;50.784;6.496;2024-01-16T04:52:28;4.55;;;3.83;;
351;SDS011;164;50.784;6.496;2024-01-16T04:54:56;6.45;;;4.13;;
351;SDS011;164;50.784;6.496;2024-01-16T04:57:23;4.38;;;3.95;;
351;SDS011;164;50.784;6.496;2024-01-16T04:59:52;8.02;;;4.13;;
351;SDS011;164;50.784;6.496;2024-01-16T05:02:20;3.38;;;3.17;;
351;SDS011;164;50.784;6.496;2024-01-16T05:04:47;5.38;;;3.58;;
351;SDS011;164;50.784;6.496;2024-01-16T05:07:17;4.93;;;4.30;;
351;SDS011;164;50.784;6.496;2024-01-16T05:09:45;8.07;;;3.15;;
351;SDS011;164;50.784;6.496;2024-01-16T05:12:13;3.47;;;2.90;;
351;SDS011;164;50.784;6.496;2024-01-16T05:14:40;6.32;;;3.50;;
351;SDS011;164;50.784;6.496;2024-01-16T05:17:09;5.00;;;3.63;;
351;SDS011;164;50.784;6.496;2024-01-16T05:19:36;3.95;;;3.20;;
351;SDS011;164;50.784;6.496;2024-01-16T05:22:04;3.65;;;3.15;;
351;SDS011;164;50.784;6.496;2024-01-16T05:24:31;4.07;;;3.65;;
351;SDS011;164;50.784;6.496;2024-01-16T05:26:58;6.28;;;3.95;;
351;SDS011;164;50.784;6.496;2024-01-16T05:29:26;4.43;;;3.60;;
351;SDS011;164;50.784;6.496;2024-01-16T05:31:53;3.63;;;2.67;;
351;SDS011;164;50.784;6.496;2024-01-16T05:34:22;4.45;;;2.45;;
351;SDS011;164;50.784;6.496;2024-01-16T05:36:50;3.47;;;2.60;;
351;SDS011;164;50.784;6.496;2024-01-16T05:39:18;4.63;;;2.75;;
351;SDS011;164;50.784;6.496;2024-01-16T05:41:46;2.25;;;2.05;;
351;SDS011;164;50.784;6.496;2024-01-16T05:44:13;3.85;;;2.70;;
351;SDS011;164;50.784;6.496;2024-01-16T05:46:41;6.65;;;2.38;;
351;SDS011;164;50.784;6.496;2024-01-16T05:49:08;4.28;;;2.53;;
351;SDS011;164;50.784;6.496;2024-01-16T05:51:37;2.42;;;1.92;;
351;SDS011;164;50.784;6.496;2024-01-16T05:54:04;3.03;;;2.50;;
351;SDS011;164;50.784;6.496;2024-01-16T05:56:32;2.88;;;2.00;;
351;SDS011;164;50.784;6.496;2024-01-16T05:59:00;2.40;;;2.03;;
351;SDS011;164;50.784;6.496;2024-01-16T06:01:29;2.85;;;1.70;;
351;SDS011;164;50.784;6.496;2024-01-16T06:03:57;3.45;;;2.70;;
351;SDS011;164;50.784;6.496;2024-01-16T06:06:25;3.30;;;2.15;;
351;SDS011;164;50.784;6.496;2024-01-16T06:08:54;2.03;;;1.90;;
351;SDS011;164;50.784;6.496;2024-01-16T06:11:29;2.72;;;1.65;;
351;SDS011;164;50.784;6.496;2024-01-16T06:13:56;2.45;;;1.70;;
351;SDS011;164;50.784;6.496;2024-01-16T06:16:24;1.80;;;1.52;;
351;SDS011;164;50.784;6.496;2024-01-16T06:18:51;6.50;;;2.75;;
351;SDS011;164;50.784;6.496;2024-01-16T06:21:19;1.95;;;1.80;;
351;SDS011;164;50.784;6.496;2024-01-16T06:23:46;5.07;;;1.95;;
351;SDS011;164;50.784;6.496;2024-01-16T06:26:16;4.28;;;1.98;;
351;SDS011;164;50.784;6.496;2024-01-16T06:28:43;2.50;;;2.05;;
351;SDS011;164;50.784;6.496;2024-01-16T06:31:11;5.45;;;2.10;;
351;SDS011;164;50.784;6.496;2024-01-16T06:33:38;5.07;;;1.80;;
351;SDS011;164;50.784;6.496;2024-01-16T06:36:06;4.38;;;1.95;;
351;SDS011;164;50.784;6.496;2024-01-16T06:38:37;1.73;;;1.30;;
351;SDS011;164;50.784;6.496;2024-01-16T06:41:06;3.33;;;1.95;;
351;SDS011;164;50.784;6.496;2024-01-16T06:43:37;2.47;;;1.90;;
351;SDS011;164;50.784;6.496;2024-01-16T06:46:59;3.35;;;1.73;;
351;SDS011;164;50.784;6.496;2024-01-16T07:02:11;2.65;;;1.90;;
351;SDS011;164;50.784;6.496;2024-01-16T07:11:18;5.68;;;1.35;;
351;SDS011;164;50.784;6.496;2024-01-16T07:14:04;2.80;;;1.67;;
351;SDS011;164;50.784;6.496;2024-01-16T07:18:02;2.72;;;2.22;;
351;SDS011;164;50.784;6.496;2024-01-16T07:19:36;6.32;;;2.08;;
351;SDS011;164;50.784;6.496;2024-01-16T07:22:07;1.92;;;1.33;;
351;SDS011;164;50.784;6.496;2024-01-16T07:24:42;3.15;;;2.10;;
351;SDS011;164;50.784;6.496;2024-01-16T07:27:19;1.70;;;1.35;;
351;SDS011;164;50.784;6.496;2024-01-16T07:29:46;2.08;;;1.65;;
351;SDS011;164;50.784;6.496;2024-01-16T07:35:25;2.55;;;1.70;;
351;SDS011;164;50.784;6.496;2024-01-16T07:37:53;2.38;;;1.60;;
351;SDS011;164;50.784;6.496;2024-01-16T07:40:20;3.25;;;1.25;;
351;SDS011;164;50.784;6.496;2024-01-16T07:42:49;1.38;;;1.08;;
351;SDS011;164;50.784;6.496;2024-01-16T07:45:16;2.50;;;1.77;;
351;SDS011;164;50.784;6.496;2024-01-16T07:47:47;2.47;;;1.75;;
351;SDS011;164;50.784;6.496;2024-01-16T07:50:14;3.95;;;1.80;;
351;SDS011;164;50.784;6.496;2024-01-16T07:52:43;2.33;;;1.23;;
351;SDS011;164;50.784;6.496;2024-01-16T07:55:14;2.55;;;1.75;;
351;SDS011;164;50.784;6.496;2024-01-16T07:57:43;4.78;;;1.63;;
351;SDS011;164;50.784;6.496;2024-01-16T08:00:11;4.90;;;1.40;;
351;SDS011;164;50.784;6.496;2024-01-16T08:02:39;2.55;;;1.10;;
351;SDS011;164;50.784;6.496;2024-01-16T08:05:06;2.70;;;1.45;;
351;SDS011;164;50.784;6.496;2024-01-16T08:07:37;1.20;;;1.05;;
351;SDS011;164;50.784;6.496;2024-01-16T08:10:12;1.80;;;1.30;;
351;SDS011;164;50.784;6.496;2024-01-16T08:12:44;2.05;;;1.92;;
351;SDS011;164;50.784;6.496;2024-01-16T08:15:11;1.40;;;1.27;;
351;SDS011;164;50.784;6.496;2024-01-16T08:17:39;4.82;;;1.40;;
351;SDS011;164;50.784;6.496;2024-01-16T08:20:09;4.57;;;1.20;;
351;SDS011;164;50.784;6.496;2024-01-16T08:22:38;1.92;;;1.23;;
351;SDS011;164;50.784;6.496;2024-01-16T08:25:06;1.30;;;0.93;;
351;SDS011;164;50.784;6.496;2024-01-16T08:27:35;3.90;;;1.63;;
351;SDS011;164;50.784;6.496;2024-01-16T08:30:03;1.73;;;1.52;;
351;SDS011;164;50.784;6.496;2024-01-16T08:32:37;3.53;;;2.10;;
351;SDS011;164;50.784;6.496;2024-01-16T08:35:08;5.45;;;1.42;;
351;SDS011;164;50.784;6.496;2024-01-16T08:37:38;1.60;;;0.82;;
351;SDS011;164;50.784;6.496;2024-01-16T08:40:10;2.70;;;1.50;;
351;SDS011;164;50.784;6.496;2024-01-16T08:42:45;1.70;;;0.80;;
351;SDS011;164;50.784;6.496;2024-01-16T08:45:16;2.72;;;0.93;;
351;SDS011;164;50.784;6.496;2024-01-16T08:47:43;1.05;;;0.98;;
351;SDS011;164;50.784;6.496;2024-01-16T08:50:13;1.05;;;1.02;;
351;SDS011;164;50.784;6.496;2024-01-16T08:52:41;1.20;;;1.10;;
351;SDS011;164;50.784;6.496;2024-01-16T08:55:15;1.23;;;1.15;;
351;SDS011;164;50.784;6.496;2024-01-16T09:00:57;1.70;;;1.05;;
351;SDS011;164;50.784;6.496;2024-01-16T09:03:28;2.78;;;0.90;;
351;SDS011;164;50.784;6.496;2024-01-16T09:05:56;1.85;;;0.80;;
351;SDS011;164;50.784;6.496;2024-01-16T09:08:35;1.80;;;0.80;;
351;SDS011;164;50.784;6.496;2024-01-16T09:11:03;5.85;;;1.77;;
351;SDS011;164;50.784;6.496;2024-01-16T09:13:31;1.58;;;0.85;;
351;SDS011;164;50.784;6.496;2024-01-16T09:16:03;3.20;;;1.00;;
351;SDS011;164;50.784;6.496;2024-01-16T09:18:32;1.13;;;1.00;;
351;SDS011;164;50.784;6.496;2024-01-16T09:21:04;1.10;;;1.00;;
351;SDS011;164;50.784;6.496;2024-01-16T09:23:35;1.48;;;0.77;;
351;SDS011;164;50.784;6.496;2024-01-16T09:26:02;3.10;;;1.15;;
351;SDS011;164;50.784;6.496;2024-01-16T09:28:33;1.55;;;1.08;;
351;SDS011;164;50.784;6.496;2024-01-16T09:31:00;2.78;;;1.10;;
351;SDS011;164;50.784;6.496;2024-01-16T09:33:36;1.58;;;1.15;;
351;SDS011;164;50.784;6.496;2024-01-16T09:36:13;2.78;;;1.05;;
351;SDS011;164;50.784;6.496;2024-01-16T09:38:41;1.42;;;0.90;;
351;SDS011;164;50.784;6.496;2024-01-16T09:41:10;2.13;;;0.90;;
351;SDS011;164;50.784;6.496;2024-01-16T09:43:42;0.88;;;0.75;;
351;SDS011;164;50.784;6.496;2024-01-16T09:46:15;1.60;;;0.70;;
351;SDS011;164;50.784;6.496;2024-01-16T09:48:46;1.10;;;1.02;;
351;SDS011;164;50.784;6.496;2024-01-16T09:51:21;1.50;;;0.70;;
351;SDS011;164;50.784;6.496;2024-01-16T09:53:56;4.82;;;0.93;;
351;SDS011;164;50.784;6.496;2024-01-16T09:56:48;1.10;;;0.82;;
351;SDS011;164;50.784;6.496;2024-01-16T09:59:24;1.25;;;1.02;;
351;SDS011;164;50.784;6.496;2024-01-16T10:01:51;2.03;;;1.35;;
351;SDS011;164;50.784;6.496;2024-01-16T10:04:23;1.77;;;1.30;;
351;SDS011;164;50.784;6.496;2024-01-16T10:06:54;3.80;;;1.52;;
351;SDS011;164;50.784;6.496;2024-01-16T10:09:31;3.10;;;1.25;;
351;SDS011;164;50.784;6.496;2024-01-16T10:12:01;2.25;;;1.63;;
351;SDS011;164;50.784;6.496;2024-01-16T10:14:44;3.63;;;1.45;;
351;SDS011;164;50.784;6.496;2024-01-16T10:17:41;5.95;;;1.63;;
351;SDS011;164;50.784;6.496;2024-01-16T10:20:39;3.95;;;1.23;;
351;SDS011;164;50.784;6.496;2024-01-16T10:26:10;7.53;;;1.60;;
351;SDS011;164;50.784;6.496;2024-01-16T10:28:56;5.95;;;1.95;;
351;SDS011;164;50.784;6.496;2024-01-16T10:31:37;2.05;;;1.38;;
351;SDS011;164;50.784;6.496;2024-01-16T10:34:22;3.35;;;1.70;;
351;SDS011;164;50.784;6.496;2024-01-16T10:37:00;2.30;;;1.55;;
351;SDS011;164;50.784;6.496;2024-01-16T10:39:33;1.85;;;1.20;;
351;SDS011;164;50.784;6.496;2024-01-16T10:42:19;3.83;;;1.40;;
351;SDS011;164;50.784;6.496;2024-01-16T10:44:53;3.67;;;1.00;;
351;SDS011;164;50.784;6.496;2024-01-16T10:47:30;2.10;;;1.10;;
351;SDS011;164;50.784;6.496;2024-01-16T10:50:11;4.60;;;1.50;;
351;SDS011;164;50.784;6.496;2024-01-16T10:53:02;1.60;;;0.90;;
351;SDS011;164;50.784;6.496;2024-01-16T10:55:30;4.40;;;1.00;;
351;SDS011;164;50.784;6.496;2024-01-16T10:58:01;1.77;;;0.90;;
351;SDS011;164;50.784;6.496;2024-01-16T11:00:31;4.10;;;1.10;;
351;SDS011;164;50.784;6.496;2024-01-16T11:03:01;2.83;;;1.20;;
351;SDS011;164;50.784;6.496;2024-01-16T11:05:31;1.13;;;1.00;;
351;SDS011;164;50.784;6.496;2024-01-16T11:08:07;3.80;;;1.05;;
351;SDS011;164;50.784;6.496;2024-01-16T11:10:37;2.47;;;1.10;;
351;SDS011;164;50.784;6.496;2024-01-16T11:13:09;1.17;;;1.15;;
351;SDS011;164;50.784;6.496;2024-01-16T11:15:41;1.15;;;1.05;;
351;SDS011;164;50.784;6.496;2024-01-16T11:18:11;3.42;;;1.00;;
351;SDS011;164;50.784;6.496;2024-01-16T11:20:43;0.80;;;0.75;;
351;SDS011;164;50.784;6.496;2024-01-16T11:23:22;1.90;;;1.17;;
351;SDS011;164;50.784;6.496;2024-01-16T11:25:52;2.33;;;1.38;;
351;SDS011;164;50.784;6.496;2024-01-16T11:28:27;3.55;;;1.80;;
351;SDS011;164;50.784;6.496;2024-01-16T11:31:04;2.40;;;1.35;;
351;SDS011;164;50.784;6.496;2024-01-16T11:34:07;3.30;;;1.38;;
351;SDS011;164;50.784;6.496;2024-01-16T11:36:57;4.28;;;1.95;;
351;SDS011;164;50.784;6.496;2024-01-16T11:39:33;3.47;;;1.77;;
351;SDS011;164;50.784;6.496;2024-01-16T11:42:09;1.73;;;1.45;;
351;SDS011;164;50.784;6.496;2024-01-16T11:44:49;2.70;;;1.63;;
351;SDS011;164;50.784;6.496;2024-01-16T11:47:23;1.90;;;1.70;;
351;SDS011;164;50.784;6.496;2024-01-16T11:49:51;2.33;;;2.10;;
351;SDS011;164;50.784;6.496;2024-01-16T11:52:38;3.28;;;1.48;;
351;SDS011;164;50.784;6.496;2024-01-16T11:57:56;4.80;;;1.92;;
351;SDS011;164;50.784;6.496;2024-01-16T12:00:31;2.67;;;1.70;;
351;SDS011;164;50.784;6.496;2024-01-16T12:03:00;2.45;;;2.05;;
351;SDS011;164;50.784;6.496;2024-01-16T12:05:29;3.15;;;1.98;;
351;SDS011;164;50.784;6.496;2024-01-16T12:07:59;2.65;;;1.90;;
351;SDS011;164;50.784;6.496;2024-01-16T12:10:29;3.05;;;1.90;;
351;SDS011;164;50.784;6.496;2024-01-16T12:13:14;2.60;;;1.85;;
351;SDS011;164;50.784;6.496;2024-01-16T12:15:43;2.30;;;2.10;;
351;SDS011;164;50.784;6.496;2024-01-16T12:18:17;2.35;;;1.45;;
351;SDS011;164;50.784;6.496;2024-01-16T12:20:45;5.03;;;1.73;;
351;SDS011;164;50.784;6.496;2024-01-16T12:23:16;1.85;;;1.52;;
351;SDS011;164;50.784;6.496;2024-01-16T12:25:47;3.92;;;2.33;;
351;SDS011;164;50.784;6.496;2024-01-16T12:28:22;2.72;;;2.28;;
351;SDS011;164;50.784;6.496;2024-01-16T12:30:58;2.75;;;2.28;;
351;SDS011;164;50.784;6.496;2024-01-16T12:33:34;3.25;;;2.33;;
351;SDS011;164;50.784;6.496;2024-01-16T12:36:14;3.88;;;2.38;;
351;SDS011;164;50.784;6.496;2024-01-16T12:38:55;2.35;;;1.50;;
351;SDS011;164;50.784;6.496;2024-01-16T12:41:30;5.43;;;2.97;;
351;SDS011;164;50.784;6.496;2024-01-16T12:44:07;3.95;;;2.15;;
351;SDS011;164;50.784;6.496;2024-01-16T12:46:37;2.35;;;1.80;;
351;SDS011;164;50.784;6.496;2024-01-16T12:49:39;5.00;;;2.08;;
351;SDS011;164;50.784;6.496;2024-01-16T12:52:19;1.92;;;1.50;;
351;SDS011;164;50.784;6.496;2024-01-16T12:54:58;1.55;;;1.45;;
351;SDS011;164;50.784;6.496;2024-01-16T12:57:32;3.72;;;1.95;;
351;SDS011;164;50.784;6.496;2024-01-16T13:00:02;1.48;;;1.40;;
351;SDS011;164;50.784;6.496;2024-01-16T13:02:49;3.15;;;1.80;;
351;SDS011;164;50.784;6.496;2024-01-16T13:05:17;2.13;;;1.65;;
351;SDS011;164;50.784;6.496;2024-01-16T13:07:45;1.80;;;1.75;;
351;SDS011;164;50.784;6.496;2024-01-16T13:10:13;3.42;;;1.35;;
351;SDS011;164;50.784;6.496;2024-01-16T13:12:43;5.55;;;1.70;;
351;SDS011;164;50.784;6.496;2024-01-16T13:15:13;1.88;;;1.77;;
351;SDS011;164;50.784;6.496;2024-01-16T13:17:48;1.52;;;1.23;;
351;SDS011;164;50.784;6.496;2024-01-16T13:20:16;3.13;;;1.65;;
351;SDS011;164;50.784;6.496;2024-01-16T13:23:05;1.95;;;1.83;;
351;SDS011;164;50.784;6.496;2024-01-16T13:25:47;3.30;;;1.98;;
351;SDS011;164;50.784;6.496;2024-01-16T13:28:24;6.30;;;2.03;;
351;SDS011;164;50.784;6.496;2024-01-16T13:31:01;3.28;;;1.83;;
351;SDS011;164;50.784;6.496;2024-01-16T13:33:28;2.72;;;2.00;;
351;SDS011;164;50.784;6.496;2024-01-16T13:36:02;4.32;;;1.88;;
351;SDS011;164;50.784;6.496;2024-01-16T13:38:34;2.22;;;1.90;;
351;SDS011;164;50.784;6.496;2024-01-16T13:41:10;5.53;;;2.13;;
351;SDS011;164;50.784;6.496;2024-01-16T13:43:52;3.13;;;1.95;;
351;SDS011;164;50.784;6.496;2024-01-16T13:46:38;5.20;;;2.13;;
351;SDS011;164;50.784;6.496;2024-01-16T13:49:11;1.75;;;1.52;;
351;SDS011;164;50.784;6.496;2024-01-16T13:51:44;3.08;;;1.50;;
351;SDS011;164;50.784;6.496;2024-01-16T13:54:17;4.20;;;2.55;;
351;SDS011;164;50.784;6.496;2024-01-16T14:03:14;2.22;;;2.03;;
351;SDS011;164;50.784;6.496;2024-01-16T14:05:45;2.20;;;2.00;;
351;SDS011;164;50.784;6.496;2024-01-16T14:08:26;2.53;;;2.00;;
351;SDS011;164;50.784;6.496;2024-01-16T14:11:07;4.85;;;1.85;;
351;SDS011;164;50.784;6.496;2024-01-16T14:13:48;2.88;;;2.33;;
351;SDS011;164;50.784;6.496;2024-01-16T14:16:33;3.10;;;2.22;;
351;SDS011;164;50.784;6.496;2024-01-16T14:19:05;2.35;;;2.10;;
351;SDS011;164;50.784;6.496;2024-01-16T14:21:33;1.42;;;1.33;;
351;SDS011;164;50.784;6.496;2024-01-16T14:24:01;4.05;;;1.85;;
351;SDS011;164;50.784;6.496;2024-01-16T14:26:29;2.70;;;2.10;;
351;SDS011;164;50.784;6.496;2024-01-16T14:29:19;5.20;;;2.72;;
351;SDS011;164;50.784;6.496;2024-01-16T14:31:59;2.28;;;1.88;;
351;SDS011;164;50.784;6.496;2024-01-16T14:34:42;2.65;;;1.90;;
351;SDS011;164;50.784;6.496;2024-01-16T14:37:19;2.78;;;1.75;;
351;SDS011;164;50.784;6.496;2024-01-16T14:39:47;3.08;;;2.08;;
351;SDS011;164;50.784;6.496;2024-01-16T14:42:20;2.75;;;2.05;;
351;SDS011;164;50.784;6.496;2024-01-16T14:44:53;1.95;;;1.70;;
351;SDS011;164;50.784;6.496;2024-01-16T14:47:32;1.98;;;1.90;;
351;SDS011;164;50.784;6.496;2024-01-16T14:50:17;3.70;;;2.35;;
351;SDS011;164;50.784;6.496;2024-01-16T14:52:54;2.10;;;1.70;;
351;SDS011;164;50.784;6.496;2024-01-16T14:55:35;2.83;;;2.65;;
351;SDS011;164;50.784;6.496;2024-01-16T14:58:21;3.90;;;2.42;;
351;SDS011;164;50.784;6.496;2024-01-16T15:01:08;3.42;;;1.83;;
351;SDS011;164;50.784;6.496;2024-01-16T15:03:45;4.20;;;3.00;;
351;SDS011;164;50.784;6.496;2024-01-16T15:06:38;2.05;;;1.70;;
351;SDS011;164;50.784;6.496;2024-01-16T15:09:08;1.73;;;1.25;;
351;SDS011;164;50.784;6.496;2024-01-16T15:11:55;3.80;;;2.80;;
351;SDS011;164;50.784;6.496;2024-01-16T15:14:28;4.50;;;2.30;;
351;SDS011;164;50.784;6.496;2024-01-16T15:17:13;2.58;;;2.30;;
351;SDS011;164;50.784;6.496;2024-01-16T15:20:04;4.40;;;2.95;;
351;SDS011;164;50.784;6.496;2024-01-16T15:22:37;3.22;;;2.83;;
351;SDS011;164;50.784;6.496;2024-01-16T15:25:17;4.68;;;2.58;;
351;SDS011;164;50.784;6.496;2024-01-16T15:27:50;2.72;;;2.40;;
351;SDS011;164;50.784;6.496;2024-01-16T15:30:40;5.85;;;2.58;;
351;SDS011;164;50.784;6.496;2024-01-16T15:33:30;3.80;;;2.40;;
351;SDS011;164;50.784;6.496;2024-01-16T15:36:14;3.95;;;3.05;;
351;SDS011;164;50.784;6.496;2024-01-16T15:47:45;4.45;;;2.72;;
351;SDS011;164;50.784;6.496;2024-01-16T15:50:31;2.72;;;1.73;;
351;SDS011;164;50.784;6.496;2024-01-16T15:56:14;2.70;;;2.15;;
351;SDS011;164;50.784;6.496;2024-01-16T15:59:17;2.72;;;2.53;;
351;SDS011;164;50.784;6.496;2024-01-16T16:02:03;2.67;;;2.05;;
351;SDS011;164;50.784;6.496;2024-01-16T16:07:47;6.15;;;2.83;;
351;SDS011;164;50.784;6.496;2024-01-16T16:13:32;4.30;;;3.25;;
351;SDS011;164;50.784;6.496;2024-01-16T16:16:22;5.72;;;3.33;;
351;SDS011;164;50.784;6.496;2024-01-16T16:19:07;4.93;;;2.80;;
351;SDS011;164;50.784;6.496;2024-01-16T16:21:50;4.30;;;2.67;;
351;SDS011;164;50.784;6.496;2024-01-16T16:24:28;1.88;;;1.77;;
351;SDS011;164;50.784;6.496;2024-01-16T16:27:27;3.35;;;2.25;;
351;SDS011;164;50.784;6.496;2024-01-16T16:30:03;2.92;;;1.90;;
351;SDS011;164;50.784;6.496;2024-01-16T16:35:39;6.03;;;2.25;;
351;SDS011;164;50.784;6.496;2024-01-16T16:38:26;2.45;;;2.08;;
351;SDS011;164;50.784;6.496;2024-01-16T16:41:03;1.98;;;1.70;;
351;SDS011;164;50.784;6.496;2024-01-16T16:43:41;3.38;;;2.05;;
351;SDS011;164;50.784;6.496;2024-01-16T16:46:22;5.55;;;3.08;;
351;SDS011;164;50.784;6.496;2024-01-16T16:49:00;3.45;;;2.42;;
351;SDS011;164;50.784;6.496;2024-01-16T16:51:33;3.17;;;2.42;;
351;SDS011;164;50.784;6.496;2024-01-16T16:54:09;4.25;;;2.50;;
351;SDS011;164;50.784;6.496;2024-01-16T16:56:44;2.78;;;2.13;;
351;SDS011;164;50.784;6.496;2024-01-16T16:59:14;3.03;;;1.92;;
351;SDS011;164;50.784;6.496;2024-01-16T17:01:45;3.58;;;2.75;;
351;SDS011;164;50.784;6.496;2024-01-16T17:04:17;3.75;;;3.28;;
351;SDS011;164;50.784;6.496;2024-01-16T17:06:47;4.45;;;2.63;;
351;SDS011;164;50.784;6.496;2024-01-16T17:09:23;5.07;;;3.30;;
351;SDS011;164;50.784;6.496;2024-01-16T17:11:55;4.82;;;2.47;;
351;SDS011;164;50.784;6.496;2024-01-16T17:14:26;4.95;;;4.65;;
351;SDS011;164;50.784;6.496;2024-01-16T17:16:56;2.60;;;2.38;;
351;SDS011;164;50.784;6.496;2024-01-16T17:19:25;3.25;;;2.60;;
351;SDS011;164;50.784;6.496;2024-01-16T17:21:52;4.78;;;2.85;;
351;SDS011;164;50.784;6.496;2024-01-16T17:24:19;3.95;;;3.75;;